Flight Track Log - Related Links

Times and Time Zones

All times are in EST time to prevent confusion due to time zone crossing. See the SWA3228 flight status page for this flight to view local times or setup timezone preferences in your user account.

Time Position Orientation Groundspeed Altitude Reporting Facility
EST Latitude Longitude Course Direction KTS MPH feet Rate Location/Type
Sat 06:08:05 PM 42.3500 -71.0167 120° Southeast 144 166 1,000  Level KA90
Sat 06:09:43 PM 42.3094 -70.9222 120° Southeast 275 316 5,400 3,038 Climbing Boston Center
Sat 06:10:43 PM 42.3333 -70.8050 75° East 316 364 9,000 2,826 Climbing Boston Center
Sat 06:11:44 PM 42.2747 -70.7306 137° Southeast 318 366 11,100 2,213 Climbing Boston Center
Sat 06:12:45 PM 42.2153 -70.7975 220° Southwest 318 366 13,500 2,800 Climbing Boston Center
Sat 06:13:44 PM 42.2092 -70.9294 266° West 337 388 16,700 2,754 Climbing Boston Center
Sat 06:14:47 PM 42.2069 -71.0500 269° West 341 392 19,100 2,508 Climbing Boston Center
Sat 06:15:46 PM 42.2067 -71.1786 270° West 344 396 21,800 2,450 Climbing Boston Center
Sat 06:16:47 PM 42.2042 -71.3186 269° West 345 397 24,000 1,920 Climbing Boston Center
Sat 06:17:51 PM 42.2008 -71.4592 268° West 372 428 25,800 1,742 Climbing Boston Center
Sat 06:18:51 PM 42.1597 -71.5931 248° West 391 450 27,600 1,884 Climbing Boston Center
Sat 06:19:52 PM 42.1103 -71.7250 243° Southwest 395 455 29,600 1,983 Climbing Boston Center
Sat 06:20:52 PM 42.0594 -71.8547 242° Southwest 393 452 31,600 1,967 Climbing Boston Center
Sat 06:21:54 PM 42.0075 -71.9822 241° Southwest 390 449 33,600 1,934 Climbing Boston Center
Sat 06:22:53 PM 41.9575 -72.1058 241° Southwest 383 441 35,500 1,700 Climbing Boston Center
Sat 06:23:54 PM 41.9108 -72.2239 242° Southwest 366 421 37,000 1,140 Climbing Boston Center
Sat 06:24:54 PM 41.8633 -72.3442 242° Southwest 364 419 37,800 484 Climbing Boston Center
Sat 06:25:58 PM 41.8139 -72.4650 241° Southwest 367 422 38,000 97 Climbing Boston Center
Sat 06:26:58 PM 41.7639 -72.5878 241° Southwest 375 432 38,000  Level Boston Center
Sat 06:27:59 PM 41.7136 -72.7056 240° Southwest 364 419 38,000  Level Boston Center
Sat 06:29:01 PM 41.6639 -72.8269 241° Southwest 369 425 38,000  Level Boston Center
Sat 06:30:01 PM 41.6139 -72.9456 241° Southwest 366 421 38,000  Level Boston Center
Sat 06:31:00 PM 41.5639 -73.0650 241° Southwest 367 422 38,000  Level Boston Center
Sat 06:32:01 PM 41.5078 -73.1989 241° Southwest 364 419 38,000  Level Boston Center
Sat 06:33:02 PM 41.4578 -73.3156 240° Southwest 362 417 38,000  Level Boston Center
Sat 06:34:03 PM 41.4089 -73.4306 240° Southwest 360 414 38,000  Level Boston Center
Sat 06:35:04 PM 41.3589 -73.5458 240° Southwest 360 414 38,000  Level Boston Center
Sat 06:36:05 PM 41.3106 -73.6606 241° Southwest 358 412 38,000  Level Boston Center
Sat 06:36:55 PM 41.2694 -73.7606 241° Southwest 373 429 38,000  Level New York Center
Sat 06:37:55 PM 41.2208 -73.8742 240° Southwest 373 429 38,000  Level New York Center
Sat 06:38:55 PM 41.1697 -73.9878 239° Southwest 373 429 38,000  Level New York Center
Sat 06:39:55 PM 41.1208 -74.1039 241° Southwest 373 429 38,000  Level New York Center
Sat 06:40:55 PM 41.0675 -74.2167 238° Southwest 373 429 38,000  Level New York Center
Sat 06:41:55 PM 41.0161 -74.3322 240° Southwest 373 429 38,000  Level New York Center
Sat 06:42:55 PM 40.9669 -74.4450 240° Southwest 373 429 38,000  Level New York Center
Sat 06:43:55 PM 40.9194 -74.5606 241° Southwest 373 429 38,000  Level New York Center
Sat 06:44:55 PM 40.8681 -74.6731 239° Southwest 368 423 38,000  Level New York Center
Sat 06:45:55 PM 40.8183 -74.7853 240° Southwest 368 423 38,000  Level New York Center
Sat 06:46:55 PM 40.7708 -74.8950 240° Southwest 362 417 38,000  Level New York Center
Sat 06:47:55 PM 40.7211 -75.0069 240° Southwest 362 417 38,000  Level New York Center
Sat 06:48:55 PM 40.6714 -75.1133 238° Southwest 356 410 38,000  Level New York Center
Sat 06:49:55 PM 40.6233 -75.2250 240° Southwest 345 397 38,000  Level New York Center
Sat 06:50:55 PM 40.5736 -75.3311 238° Southwest 345 397 38,000  Level New York Center
Sat 06:51:55 PM 40.5186 -75.4558 240° Southwest 345 397 38,000  Level New York Center
Sat 06:52:55 PM 40.4683 -75.5669 239° Southwest 350 403 38,000  Level New York Center
Sat 06:53:55 PM 40.4181 -75.6753 239° Southwest 350 403 38,000  Level New York Center
Sat 06:54:55 PM 40.3675 -75.7889 240° Southwest 350 403 38,000  Level New York Center
Sat 06:55:55 PM 40.3261 -75.8756 238° Southwest 350 403 38,000  Level New York Center
Sat 06:56:55 PM 40.2644 -76.0017 237° Southwest 361 415 38,000  Level New York Center
Sat 06:57:55 PM 40.2136 -76.1119 239° Southwest 361 415 38,000  Level New York Center
Sat 06:58:55 PM 40.1714 -76.2119 241° Southwest 361 415 38,000  Level New York Center
Sat 06:59:55 PM 40.1117 -76.3322 237° Southwest 361 415 38,000  Level New York Center
Sat 07:00:55 PM 40.0603 -76.4447 239° Southwest 361 415 38,000  Level New York Center
Sat 07:01:55 PM 40.0092 -76.5572 239° Southwest 361 415 38,000  Level New York Center
Sat 07:02:55 PM 39.9581 -76.6639 238° Southwest 361 415 38,000  Level New York Center
Sat 07:03:55 PM 39.9044 -76.7733 237° Southwest 361 415 38,000  Level New York Center
Sat 07:04:55 PM 39.8531 -76.8797 238° Southwest 361 415 38,000  Level New York Center
Sat 07:06:09 PM 39.7886 -77.0144 238° Southwest 363 418 38,000  Level Washington Center
Sat 07:07:10 PM 39.7372 -77.1242 239° Southwest 363 418 38,000  Level Washington Center
Sat 07:08:08 PM 39.6839 -77.2336 238° Southwest 363 418 38,000  Level Washington Center
Sat 07:09:08 PM 39.6322 -77.3428 238° Southwest 363 418 38,000  Level Washington Center
Sat 07:10:09 PM 39.5786 -77.4519 238° Southwest 363 418 38,000  Level Washington Center
Sat 07:11:10 PM 39.5267 -77.5608 238° Southwest 363 418 38,000  Level Washington Center
Sat 07:12:08 PM 39.4750 -77.6697 238° Southwest 363 418 38,000  Level Washington Center
Sat 07:13:10 PM 39.4208 -77.7783 237° Southwest 363 418 38,000  Level Washington Center
Sat 07:14:08 PM 39.3689 -77.8869 238° Southwest 363 418 38,000  Level Washington Center
Sat 07:15:09 PM 39.3269 -77.9983 244° Southwest 357 411 38,000  Level Washington Center
Sat 07:16:10 PM 39.2811 -78.1094 242° Southwest 351 404 38,000  Level Washington Center
Sat 07:17:08 PM 39.2369 -78.2231 243° Southwest 351 404 38,000  Level Washington Center
Sat 07:18:09 PM 39.1928 -78.3367 243° Southwest 351 404 38,000  Level Washington Center
Sat 07:19:10 PM 39.1464 -78.4472 242° Southwest 351 404 38,000  Level Washington Center
Sat 07:20:10 PM 39.0997 -78.5606 242° Southwest 356 410 38,000  Level Washington Center
Sat 07:21:12 PM 39.0553 -78.6711 243° Southwest 356 410 38,000  Level Washington Center
Sat 07:22:10 PM 39.0086 -78.7867 243° Southwest 361 415 38,000  Level Washington Center
Sat 07:23:10 PM 38.9617 -78.8994 242° Southwest 361 415 38,000  Level Washington Center
Sat 07:24:09 PM 38.9169 -79.0147 244° Southwest 361 415 38,000  Level Washington Center
Sat 07:25:10 PM 38.8697 -79.1297 242° Southwest 361 415 38,000  Level Washington Center
Sat 07:26:10 PM 38.8308 -79.2453 247° West 361 415 38,000  Level Washington Center
Sat 07:27:08 PM 38.8083 -79.3694 257° West 355 409 38,000  Level Washington Center
Sat 07:28:48 PM 38.7719 -79.5753 257° West 358 412 38,000  Level Indianapolis Center
Sat 07:29:50 PM 38.7450 -79.7208 257° West 360 414 38,000  Level Indianapolis Center
Sat 07:30:51 PM 38.7233 -79.8419 257° West 367 422 38,000  Level Indianapolis Center
Sat 07:31:53 PM 38.6997 -79.9681 257° West 365 420 38,000  Level Indianapolis Center
Sat 07:32:54 PM 38.6758 -80.0958 257° West 367 422 38,000  Level Indianapolis Center
Sat 07:33:55 PM 38.6514 -80.2208 256° West 364 419 38,000  Level Indianapolis Center
Sat 07:34:57 PM 38.6286 -80.3472 257° West 363 418 38,000  Level Indianapolis Center
Sat 07:35:58 PM 38.6053 -80.4719 257° West 361 415 38,000  Level Indianapolis Center
Sat 07:36:59 PM 38.5792 -80.5950 255° West 359 413 38,000  Level Indianapolis Center
Sat 07:38:01 PM 38.5486 -80.7186 252° West 362 417 38,000  Level Indianapolis Center
Sat 07:39:02 PM 38.5131 -80.8658 253° West 362 417 38,000  Level Indianapolis Center
Sat 07:40:03 PM 38.4819 -80.9889 252° West 363 418 38,000  Level Indianapolis Center
Sat 07:41:05 PM 38.4525 -81.1117 253° West 361 415 38,000  Level Indianapolis Center
Sat 07:42:06 PM 38.4211 -81.2372 252° West 367 422 38,000  Level Indianapolis Center
Sat 07:43:07 PM 38.3900 -81.3608 252° West 363 418 38,000  Level Indianapolis Center
Sat 07:44:09 PM 38.3600 -81.4856 253° West 364 419 38,000  Level Indianapolis Center
Sat 07:45:10 PM 38.3283 -81.6078 252° West 361 415 38,000  Level Indianapolis Center
Sat 07:46:11 PM 38.2972 -81.7314 252° West 363 418 38,000  Level Indianapolis Center
Sat 07:47:13 PM 38.2658 -81.8544 252° West 364 419 38,000  Level Indianapolis Center
Sat 07:48:14 PM 38.2350 -81.9772 252° West 364 419 38,000  Level Indianapolis Center
Sat 07:49:15 PM 38.2036 -82.1017 252° West 369 425 38,000  Level Indianapolis Center
Sat 07:50:17 PM 38.1714 -82.2269 252° West 371 427 38,000  Level Indianapolis Center
Sat 07:51:18 PM 38.1394 -82.3514 252° West 369 425 38,000  Level Indianapolis Center
Sat 07:52:19 PM 38.1022 -82.4911 251° West 373 429 38,000  Level Indianapolis Center
Sat 07:53:20 PM 38.0519 -82.6058 241° Southwest 375 432 38,000  Level Indianapolis Center
Sat 07:54:22 PM 38.0006 -82.7206 240° Southwest 374 430 38,000  Level Indianapolis Center
Sat 07:55:23 PM 37.9478 -82.8372 240° Southwest 383 441 38,000  Level Indianapolis Center
Sat 07:56:24 PM 37.8961 -82.9542 241° Southwest 381 438 38,000  Level Indianapolis Center
Sat 07:57:25 PM 37.8358 -83.0883 240° Southwest 377 434 38,000 -390 Level Indianapolis Center
Sat 07:58:27 PM 37.7825 -83.2050 240° Southwest 382 440 37,200 -488 Descending Indianapolis Center
Sat 07:59:28 PM 37.7300 -83.3194 240° Southwest 379 436 37,000 -148 Descending Indianapolis Center
Sat 08:00:29 PM 37.6769 -83.4361 240° Southwest 382 440 36,900 -976 Descending Indianapolis Center
Sat 08:01:31 PM 37.6244 -83.5522 240° Southwest 382 440 35,000 -1,415 Descending Indianapolis Center
Sat 08:02:32 PM 37.5711 -83.6658 239° Southwest 379 436 34,000 -492 Descending Indianapolis Center
Sat 08:03:33 PM 37.5194 -83.7797 240° Southwest 375 432 34,000 -98 Level Indianapolis Center
Sat 08:04:34 PM 37.4575 -83.9131 240° Southwest 379 436 33,800 -585 Descending Indianapolis Center
Sat 08:05:36 PM 37.4053 -84.0272 240° Southwest 377 434 32,800 -878 Descending Indianapolis Center
Sat 08:06:37 PM 37.3517 -84.1414 239° Southwest 378 435 32,000 -393 Descending Indianapolis Center
Sat 08:07:38 PM 37.2997 -84.2508 239° Southwest 368 423 32,000  Level Indianapolis Center
Sat 08:08:40 PM 37.2483 -84.3625 240° Southwest 368 423 32,000  Level Indianapolis Center
Sat 08:09:41 PM 37.1944 -84.4772 239° Southwest 376 433 32,000  Level Indianapolis Center
Sat 08:10:42 PM 37.1378 -84.5950 239° Southwest 389 448 32,000  Level Indianapolis Center
Sat 08:11:43 PM 37.0831 -84.7119 240° Southwest 389 448 32,000 -439 Level Indianapolis Center
Sat 08:12:45 PM 37.0194 -84.8450 239° Southwest 393 452 31,100 -927 Descending Indianapolis Center
Sat 08:13:46 PM 36.9636 -84.9608 239° Southwest 391 450 30,100 -934 Descending Indianapolis Center
Sat 08:14:47 PM 36.9072 -85.0778 239° Southwest 393 452 29,200 -1,574 Descending Indianapolis Center
Sat 08:15:48 PM 36.8508 -85.1947 239° Southwest 395 455 26,900 -2,439 Descending Indianapolis Center
Sat 08:16:50 PM 36.7958 -85.3089 239° Southwest 386 444 24,200 -2,390 Descending Indianapolis Center
Sat 08:17:51 PM 36.7439 -85.4156 239° Southwest 366 421 22,000 -1,623 Descending Indianapolis Center
Sat 08:18:52 PM 36.6967 -85.5178 240° Southwest 343 395 20,900 -1,415 Descending Indianapolis Center
Sat 08:19:54 PM 36.6514 -85.6108 239° Southwest 320 368 19,100 -1,805 Descending Indianapolis Center
Sat 08:20:55 PM 36.6025 -85.7144 240° Southwest 294 338 17,200 -1,820 Descending Indianapolis Center
Sat 08:21:56 PM 36.5633 -85.8003 240° Southwest 286 329 15,400 -1,659 Descending Indianapolis Center
Sat 08:22:58 PM 36.5225 -85.8819 238° Southwest 282 325 13,800 -1,610 Descending Indianapolis Center
Sat 08:23:59 PM 36.4878 -85.9639 242° Southwest 268 308 12,100 -1,574 Descending Indianapolis Center
Sat 08:25:00 PM 36.4544 -86.0447 243° Southwest 261 300 10,600 -1,426 Descending Indianapolis Center
Sat 08:26:01 PM 36.4217 -86.1200 242° Southwest 248 285 9,200 -1,415 Descending Indianapolis Center
Sat 08:27:03 PM 36.3911 -86.1928 242° Southwest 239 275 7,700 -1,366 Descending Indianapolis Center
Sat 08:28:04 PM 36.3592 -86.2667 242° Southwest 239 275 6,400 -1,279 Descending Indianapolis Center
Sat 08:29:05 PM 36.3289 -86.3386 242° Southwest 235 270 5,100 -1,180 Descending Indianapolis Center
Sat 08:30:06 PM 36.2989 -86.4072 242° Southwest 227 261 4,000 -1,235 Descending Indianapolis Center
Sat 08:30:47 PM 36.2833 -86.4500 246° West 219 252 3,000 -1,011 Descending Nashville TRACON
Sat 08:31:35 PM 36.2567 -86.5067 240° Southwest 215 247 2,500 -275 Descending Memphis Center
Sat 08:32:36 PM 36.2336 -86.5578 241° Southwest 183 211 2,500 -148 Level Memphis Center
Sat 08:33:37 PM 36.2164 -86.5997 243° Southwest 148 170 2,200 -341 Descending Memphis Center
Sat 08:34:39 PM 36.1933 -86.6281 225° Southwest 126 145 1,800 -439 Descending Memphis Center
Sat 08:35:40 PM 36.1658 -86.6478 210° Southwest 116 133 1,300 -492 Descending Memphis Center
Sat 08:36:41 PM 36.1344 -86.6578 194° South 117 135 800 -492 Descending Memphis Center

Login

Don't have an account? Register now (free) for customized features, flight alerts, and more!